createdAt,value
2017-07-12T00:01:32.354Z,100317.91
2017-07-12T00:03:58.705Z,100322.76
2017-07-12T00:06:25.090Z,100308.39
2017-07-12T00:08:51.427Z,100310.59
2017-07-12T00:11:17.769Z,100302.32
2017-07-12T00:13:44.113Z,100296.00
2017-07-12T00:16:10.460Z,100306.88
2017-07-12T00:18:36.791Z,100313.55
2017-07-12T00:21:03.127Z,100318.32
2017-07-12T00:23:29.873Z,100321.46
2017-07-12T00:25:56.211Z,100308.33
2017-07-12T00:28:22.589Z,100313.84
2017-07-12T00:30:48.951Z,100298.70
2017-07-12T00:33:15.813Z,100293.27
2017-07-12T00:35:42.193Z,100298.05
2017-07-12T00:38:08.561Z,100292.56
2017-07-12T00:40:34.897Z,100291.15
2017-07-12T00:43:01.262Z,100295.63
2017-07-12T00:45:27.603Z,100294.63
2017-07-12T00:47:53.969Z,100293.32
2017-07-12T00:50:20.337Z,100288.70
2017-07-12T00:52:46.696Z,100269.62
2017-07-12T00:55:13.033Z,100269.67
2017-07-12T00:57:39.388Z,100260.48
2017-07-12T01:00:05.821Z,100248.62
2017-07-12T01:02:32.159Z,100254.45
2017-07-12T01:04:58.511Z,100263.98
2017-07-12T01:07:24.884Z,100264.02
2017-07-12T01:09:51.247Z,100265.06
2017-07-12T01:12:17.572Z,100269.28
2017-07-12T01:14:43.917Z,100255.28
2017-07-12T01:17:10.281Z,100262.16
2017-07-12T01:19:36.669Z,100260.16
2017-07-12T01:22:03.015Z,100260.38
2017-07-12T01:24:29.371Z,100253.02
2017-07-12T01:26:55.710Z,100256.40
2017-07-12T01:29:22.063Z,100246.86
2017-07-12T01:31:48.437Z,100241.58
2017-07-12T01:34:14.846Z,100242.11
2017-07-12T01:36:41.207Z,100229.52
2017-07-12T01:39:07.569Z,100228.82
2017-07-12T01:41:33.936Z,100225.55
2017-07-12T01:44:00.375Z,100231.28
2017-07-12T01:46:26.763Z,100225.55
2017-07-12T01:48:53.238Z,100218.34
2017-07-12T01:51:19.705Z,100214.98
2017-07-12T01:53:49.276Z,100213.65
2017-07-12T01:56:18.873Z,100218.38
2017-07-12T01:58:50.748Z,100222.73
2017-07-12T02:01:17.468Z,100225.41
2017-07-12T02:03:49.950Z,100223.35
2017-07-12T02:06:16.478Z,100227.72
2017-07-12T02:08:48.333Z,100211.78
2017-07-12T02:11:19.965Z,100216.44
2017-07-12T02:13:51.918Z,100201.32
2017-07-12T02:16:23.784Z,100205.48
2017-07-12T02:18:50.637Z,100207.52
2017-07-12T02:21:22.943Z,100210.54
2017-07-12T02:23:49.372Z,100197.84
2017-07-12T02:26:15.850Z,100190.66
2017-07-12T02:28:42.346Z,100193.95
2017-07-12T02:31:14.245Z,100192.62
2017-07-12T02:33:41.032Z,100188.61
2017-07-12T02:36:07.440Z,100185.47
2017-07-12T02:38:37.008Z,100189.58
2017-07-12T02:41:03.431Z,100184.81
2017-07-12T02:43:35.270Z,100179.22
2017-07-12T02:46:07.751Z,100175.26
2017-07-12T02:48:34.263Z,100170.06
2017-07-12T02:51:00.767Z,100162.21
2017-07-12T02:53:32.543Z,100163.20
2017-07-12T02:55:58.939Z,100164.38
2017-07-12T02:58:28.490Z,100168.17
2017-07-12T03:01:00.096Z,100149.37
2017-07-12T03:03:31.649Z,100152.52
2017-07-12T03:05:58.182Z,100149.13
2017-07-12T03:08:29.662Z,100159.42
2017-07-12T03:10:56.101Z,100148.78
2017-07-12T03:13:22.527Z,100152.66
2017-07-12T03:15:49.201Z,100147.31
2017-07-12T03:18:15.703Z,100141.15
2017-07-12T03:20:42.137Z,100134.03
2017-07-12T03:23:08.657Z,100142.10
2017-07-12T03:25:40.697Z,100130.48
2017-07-12T03:28:07.117Z,100133.38
2017-07-12T03:30:33.633Z,100133.67
2017-07-12T03:33:00.467Z,100141.15
2017-07-12T03:35:26.902Z,100128.56
2017-07-12T03:37:53.610Z,100123.61
2017-07-12T03:40:20.065Z,100129.52
2017-07-12T03:42:49.438Z,100135.29
2017-07-12T03:45:15.795Z,100119.72
2017-07-12T03:47:42.219Z,100121.96
2017-07-12T03:50:09.213Z,100130.77
2017-07-12T03:52:36.597Z,100131.92
2017-07-12T03:55:03.024Z,100128.83
2017-07-12T03:57:29.403Z,100120.84
2017-07-12T03:59:55.825Z,100118.39
2017-07-12T04:02:25.557Z,100111.84
2017-07-12T04:04:52.110Z,100103.59
2017-07-12T04:07:18.876Z,100100.98
2017-07-12T04:09:50.481Z,100090.61
2017-07-12T04:12:16.937Z,100092.71
2017-07-12T04:14:43.759Z,100093.03
2017-07-12T04:17:15.418Z,100094.09
2017-07-12T04:19:42.423Z,100086.12
2017-07-12T04:22:09.268Z,100080.41
2017-07-12T04:24:35.722Z,100087.66
2017-07-12T04:27:02.094Z,100083.77
2017-07-12T04:29:28.459Z,100075.20
2017-07-12T04:31:55.043Z,100073.78
2017-07-12T04:34:26.712Z,100070.42
2017-07-12T04:36:53.076Z,100071.22
2017-07-12T04:39:23.014Z,100067.84
2017-07-12T04:41:49.548Z,100067.89
2017-07-12T04:44:15.974Z,100065.80
2017-07-12T04:46:42.687Z,100063.14
2017-07-12T04:49:14.306Z,100062.42
2017-07-12T04:51:40.740Z,100057.97
2017-07-12T04:54:08.165Z,100046.13
2017-07-12T04:56:34.632Z,100038.52
2017-07-12T04:59:01.141Z,100044.19
2017-07-12T05:01:28.476Z,100047.66
2017-07-12T05:03:54.916Z,100043.52
2017-07-12T05:06:21.361Z,100044.20
2017-07-12T05:08:53.902Z,100041.35
2017-07-12T05:11:20.395Z,100039.25
2017-07-12T05:13:46.766Z,100031.47
2017-07-12T05:16:13.222Z,100025.21
2017-07-12T05:18:39.589Z,100027.16
2017-07-12T05:21:06.056Z,100030.00
2017-07-12T05:23:32.859Z,100030.29
2017-07-12T05:25:59.640Z,100030.45
2017-07-12T05:28:31.264Z,100023.14
2017-07-12T05:31:02.847Z,100028.48
2017-07-12T05:33:29.264Z,100027.88
2017-07-12T05:36:00.939Z,100023.73
2017-07-12T05:38:33.130Z,100022.99
2017-07-12T05:40:59.701Z,100020.20
2017-07-12T05:43:26.255Z,99999.01
2017-07-12T05:45:53.473Z,100007.97
2017-07-12T05:48:25.538Z,100012.77
2017-07-12T05:50:52.195Z,100003.93
2017-07-12T05:53:18.594Z,100006.45
2017-07-12T05:55:50.358Z,100001.37
2017-07-12T05:58:16.896Z,99993.63
2017-07-12T06:00:43.661Z,99994.75
2017-07-12T06:03:10.411Z,99998.61
2017-07-12T06:05:36.800Z,100004.42
2017-07-12T06:08:03.262Z,99995.22
2017-07-12T06:10:30.690Z,99994.75
2017-07-12T06:12:57.858Z,99990.68
2017-07-12T06:15:24.521Z,100001.59
2017-07-12T06:17:53.965Z,99998.88
2017-07-12T06:20:25.903Z,99998.39
2017-07-12T06:22:52.379Z,99997.34
2017-07-12T06:25:19.721Z,99996.04
2017-07-12T06:27:46.158Z,99997.27
2017-07-12T06:30:15.548Z,99995.19
2017-07-12T06:32:43.056Z,99995.76
2017-07-12T06:35:09.667Z,99988.53
2017-07-12T06:37:36.127Z,99986.72
2017-07-12T06:40:02.671Z,99984.60
2017-07-12T06:42:30.008Z,99982.66
2017-07-12T06:44:57.381Z,99974.29
2017-07-12T06:47:28.988Z,99978.05
2017-07-12T06:49:55.629Z,99972.91
2017-07-12T06:52:27.672Z,99974.62
2017-07-12T06:54:54.010Z,99966.62
2017-07-12T06:57:20.855Z,99964.80
2017-07-12T06:59:52.541Z,99960.38
2017-07-12T07:02:19.030Z,99954.31
2017-07-12T07:04:45.434Z,99953.30
2017-07-12T07:07:17.313Z,99958.47
2017-07-12T07:09:44.049Z,99941.36
2017-07-12T07:12:10.760Z,99939.27
2017-07-12T07:14:42.410Z,99940.06
2017-07-12T07:17:14.058Z,99928.38
2017-07-12T07:19:40.845Z,99932.99
2017-07-12T07:22:07.290Z,99928.06
2017-07-12T07:24:39.375Z,99924.52
2017-07-12T07:27:07.900Z,99914.72
2017-07-12T07:29:34.859Z,99908.83
2017-07-12T07:32:01.302Z,99913.59
2017-07-12T07:34:30.733Z,99909.48
2017-07-12T07:36:57.643Z,99907.44
2017-07-12T07:39:24.342Z,99910.64
2017-07-12T07:41:55.948Z,99917.05
2017-07-12T07:44:22.705Z,99917.73
2017-07-12T07:46:49.196Z,99924.09
2017-07-12T07:49:18.748Z,99920.58
2017-07-12T07:51:46.060Z,99925.63
2017-07-12T07:54:12.604Z,99928.86
2017-07-12T07:56:38.962Z,99933.33
2017-07-12T07:59:05.428Z,99930.41
2017-07-12T08:01:31.908Z,99927.02
2017-07-12T08:03:59.388Z,99915.84
2017-07-12T08:06:26.115Z,99910.06
2017-07-12T08:08:53.336Z,99911.50
2017-07-12T08:11:20.014Z,99916.21
2017-07-12T08:13:51.606Z,99910.16
2017-07-12T08:16:18.044Z,99920.37
2017-07-12T08:18:49.846Z,99919.89
2017-07-12T08:21:16.496Z,99925.06
2017-07-12T08:23:43.053Z,99920.53
2017-07-12T08:26:09.500Z,99911.08
2017-07-12T08:28:36.747Z,99905.84
2017-07-12T08:31:08.290Z,99898.38
2017-07-12T08:33:34.925Z,99887.28
2017-07-12T08:36:01.397Z,99877.28
2017-07-12T08:38:33.275Z,99878.00
2017-07-12T08:40:59.889Z,99866.67
2017-07-12T08:43:26.239Z,99860.16
2017-07-12T08:45:57.843Z,99853.20
2017-07-12T08:48:24.370Z,99844.47
2017-07-12T08:50:50.811Z,99849.11
2017-07-12T08:53:17.516Z,99851.51
2017-07-12T08:55:44.954Z,99849.54
2017-07-12T08:58:17.019Z,99855.98
2017-07-12T09:00:44.278Z,99855.27
2017-07-12T09:03:11.214Z,99851.33
2017-07-12T09:05:37.882Z,99860.12
2017-07-12T09:08:04.342Z,99863.76
2017-07-12T09:10:30.761Z,99865.33
2017-07-12T09:13:02.695Z,99869.58
2017-07-12T09:15:34.390Z,99874.22
2017-07-12T09:18:03.722Z,99873.16
2017-07-12T09:20:30.199Z,99877.66
2017-07-12T09:22:56.869Z,99876.54
2017-07-12T09:35:09.544Z,99885.26
2017-07-12T09:37:41.303Z,99870.95
2017-07-12T09:40:07.831Z,99874.81
2017-07-12T09:42:34.510Z,99869.44
2017-07-12T09:45:01.039Z,99868.19
2017-07-12T09:47:33.003Z,99870.48
2017-07-12T09:49:59.839Z,99872.23
2017-07-12T09:52:27.188Z,99871.00
2017-07-12T09:54:54.049Z,99867.03
2017-07-12T09:57:20.516Z,99868.90
2017-07-12T09:59:50.257Z,99858.52
2017-07-12T10:02:16.755Z,99858.49
2017-07-12T10:04:48.336Z,99864.42
2017-07-12T10:07:19.981Z,99851.09
2017-07-12T10:09:46.332Z,99846.88
2017-07-12T10:12:12.683Z,99853.91
2017-07-12T10:14:39.003Z,99858.33
2017-07-12T10:17:05.349Z,99854.83
2017-07-12T10:19:31.683Z,99847.55
2017-07-12T10:21:58.010Z,99850.88
2017-07-12T10:24:24.376Z,99847.54
2017-07-12T10:26:50.691Z,99838.27
2017-07-12T10:29:17.038Z,99844.16
2017-07-12T10:31:43.374Z,99840.84
2017-07-12T10:34:09.731Z,99843.34
2017-07-12T10:36:36.065Z,99845.20
2017-07-12T10:39:02.509Z,99849.41
2017-07-12T10:41:28.870Z,99839.61
2017-07-12T10:43:55.241Z,99846.87
2017-07-12T10:46:21.597Z,99839.84
2017-07-12T10:48:47.929Z,99840.73
2017-07-12T10:51:14.294Z,99832.10
2017-07-12T10:53:40.665Z,99831.79
2017-07-12T10:56:07.022Z,99834.91
2017-07-12T10:58:33.400Z,99828.33
2017-07-12T11:00:59.734Z,99827.42
2017-07-12T11:03:26.088Z,99827.25
2017-07-12T11:05:52.427Z,99826.10
2017-07-12T11:08:18.747Z,99823.29
2017-07-12T11:10:45.104Z,99811.69
2017-07-12T11:13:11.480Z,99809.44
2017-07-12T11:15:37.834Z,99804.59
2017-07-12T11:18:04.187Z,99797.45
2017-07-12T11:20:30.513Z,99794.03
2017-07-12T11:22:56.894Z,99795.39
2017-07-12T11:25:23.229Z,99792.00
2017-07-12T11:27:49.575Z,99790.53
2017-07-12T11:30:15.937Z,99779.63
2017-07-12T11:32:42.293Z,99780.13
2017-07-12T11:35:08.601Z,99774.69
2017-07-12T11:37:35.426Z,99761.91
2017-07-12T11:40:01.829Z,99773.19
2017-07-12T11:42:28.194Z,99759.43
2017-07-12T11:44:54.527Z,99757.97
2017-07-12T11:47:20.889Z,99757.97
2017-07-12T11:49:47.214Z,99750.70
2017-07-12T11:52:13.609Z,99744.19
2017-07-12T11:54:40.872Z,99746.62
2017-07-12T11:57:07.295Z,99745.81
2017-07-12T11:59:33.653Z,99747.77
2017-07-12T12:02:00.043Z,99743.77
2017-07-12T12:04:26.376Z,99742.98
2017-07-12T12:06:52.735Z,99737.48
2017-07-12T12:09:19.079Z,99735.59
2017-07-12T12:11:45.397Z,99740.13
2017-07-12T12:14:11.739Z,99738.00
2017-07-12T12:16:38.068Z,99740.27
2017-07-12T12:19:04.404Z,99743.94
2017-07-12T12:21:30.747Z,99745.62
2017-07-12T12:23:57.094Z,99799.61
2017-07-12T12:26:23.422Z,99816.70
2017-07-12T12:28:49.739Z,99846.84
2017-07-12T12:31:16.102Z,99874.62
2017-07-12T12:33:42.433Z,99898.44
2017-07-12T12:36:08.786Z,99908.30
2017-07-12T12:38:35.140Z,99915.84
2017-07-12T12:41:01.481Z,99942.23
2017-07-12T12:43:27.784Z,99969.81
2017-07-12T12:45:54.129Z,99981.70
2017-07-12T12:48:20.482Z,100000.91
2017-07-12T12:50:46.874Z,100019.75
2017-07-12T12:53:13.243Z,100040.05
2017-07-12T12:55:39.582Z,100060.95
2017-07-12T12:58:05.975Z,100076.62
2017-07-12T13:00:32.340Z,100084.07
2017-07-12T13:02:58.675Z,100091.47
2017-07-12T13:05:31.014Z,100096.38
2017-07-12T13:07:57.379Z,100102.71
2017-07-12T13:10:23.757Z,100105.78
2017-07-12T13:12:50.111Z,100108.48
2017-07-12T13:15:16.458Z,100119.33
2017-07-12T13:17:42.837Z,100117.78
2017-07-12T13:20:09.184Z,100111.64
2017-07-12T13:22:35.532Z,100104.74
2017-07-12T13:25:01.925Z,100113.75
2017-07-12T13:27:28.232Z,100128.78
2017-07-12T13:29:54.581Z,100126.77
2017-07-12T13:32:20.924Z,100127.42
2017-07-12T13:34:47.290Z,100131.47
2017-07-12T13:37:13.641Z,100136.77
2017-07-12T13:39:39.986Z,100156.28
2017-07-12T13:42:06.311Z,100173.01
2017-07-12T13:44:32.641Z,100198.62
2017-07-12T13:46:58.965Z,100210.34
2017-07-12T13:49:25.325Z,100225.64
2017-07-12T13:51:51.675Z,100221.28
2017-07-12T13:54:18.054Z,100229.20
2017-07-12T13:56:44.389Z,100234.08
2017-07-12T13:59:10.725Z,100255.77
2017-07-12T14:01:37.037Z,100274.55
2017-07-12T14:04:03.406Z,100288.80
2017-07-12T14:06:29.743Z,100292.83
2017-07-12T14:08:56.080Z,100299.62
2017-07-12T14:11:22.433Z,100298.17
2017-07-12T14:13:48.774Z,100306.39
2017-07-12T14:16:15.129Z,100310.73
2017-07-12T14:18:41.483Z,100318.77
2017-07-12T14:21:07.846Z,100330.80
2017-07-12T14:23:34.186Z,100335.94
2017-07-12T14:26:00.514Z,100344.17
2017-07-12T14:28:26.886Z,100353.19
2017-07-12T14:30:53.291Z,100356.22
2017-07-12T14:33:19.928Z,100368.13
2017-07-12T14:35:46.452Z,100379.23
2017-07-12T14:38:12.823Z,100382.34
2017-07-12T14:40:39.166Z,100384.92
2017-07-12T14:43:05.496Z,100389.76
2017-07-12T14:45:31.862Z,100391.14
2017-07-12T14:47:58.214Z,100398.47
2017-07-12T14:50:24.563Z,100410.44
2017-07-12T14:52:50.952Z,100411.45
2017-07-12T14:55:17.307Z,100414.66
2017-07-12T14:57:43.633Z,100430.09
2017-07-12T15:00:10.005Z,100427.64
2017-07-12T15:02:36.359Z,100463.64
2017-07-12T15:05:11.251Z,100466.13
2017-07-12T15:07:37.581Z,100483.67
2017-07-12T15:10:03.917Z,100482.92
2017-07-12T15:12:30.261Z,100493.50
2017-07-12T15:14:56.627Z,100506.32
2017-07-12T15:17:22.944Z,100520.09
2017-07-12T15:19:49.319Z,100525.18
2017-07-12T15:22:15.680Z,100534.81
2017-07-12T15:24:42.005Z,100540.09
2017-07-12T15:27:08.366Z,100543.59
2017-07-12T15:29:34.868Z,100551.80
2017-07-12T15:32:11.717Z,100579.50
2017-07-12T15:34:42.864Z,100586.16
2017-07-12T15:37:11.355Z,100584.22
2017-07-12T15:39:39.288Z,100601.68
2017-07-12T15:42:09.611Z,100599.92
2017-07-12T15:44:36.993Z,100615.72
2017-07-12T15:47:06.090Z,100632.37
2017-07-12T15:49:35.125Z,100635.78
2017-07-12T15:52:02.285Z,100642.77
2017-07-12T15:54:29.393Z,100655.33
2017-07-12T15:56:57.121Z,100668.75
2017-07-12T15:59:25.543Z,100665.55
2017-07-12T16:01:51.905Z,100673.15
2017-07-12T16:04:18.271Z,100682.06
2017-07-12T16:06:44.600Z,100686.50
2017-07-12T16:09:10.973Z,100687.41
2017-07-12T16:11:37.322Z,100702.15
2017-07-12T16:14:03.650Z,100706.28
2017-07-12T16:16:30.489Z,100716.31
2017-07-12T16:18:57.539Z,100722.86
2017-07-12T16:21:24.317Z,100725.35
2017-07-12T16:23:50.670Z,100736.50
2017-07-12T16:26:17.718Z,100740.27
2017-07-12T16:28:44.438Z,100743.09
2017-07-12T16:31:11.483Z,100757.73
2017-07-12T16:33:38.563Z,100749.89
2017-07-12T16:36:05.297Z,100745.77
2017-07-12T16:38:31.853Z,100756.72
2017-07-12T16:40:58.211Z,100768.90
2017-07-12T16:43:24.722Z,100774.38
2017-07-12T16:45:51.050Z,100778.94
2017-07-12T16:48:17.429Z,100784.38
2017-07-12T16:50:43.773Z,100793.96
2017-07-12T16:53:10.127Z,100801.09
2017-07-12T16:55:36.461Z,100814.41
2017-07-12T16:58:02.824Z,100813.61
2017-07-12T17:00:29.177Z,100824.80
2017-07-12T17:02:55.527Z,100820.32
2017-07-12T17:05:21.849Z,100837.61
2017-07-12T17:07:48.810Z,100835.73
2017-07-12T17:10:15.459Z,100842.16
2017-07-12T17:12:42.354Z,100848.25
2017-07-12T17:15:09.251Z,100849.95
2017-07-12T17:17:36.026Z,100850.47
2017-07-12T17:20:03.199Z,100860.64
2017-07-12T17:22:30.212Z,100866.67
2017-07-12T17:24:57.073Z,100870.20
2017-07-12T17:27:24.150Z,100875.92
2017-07-12T17:29:50.938Z,100885.91
2017-07-12T17:32:17.889Z,100878.05
2017-07-12T17:34:45.002Z,100880.78
2017-07-12T17:37:12.034Z,100876.89
2017-07-12T17:39:38.607Z,100896.51
2017-07-12T17:42:05.018Z,100906.52
2017-07-12T17:44:31.698Z,100917.77
2017-07-12T17:46:58.081Z,100925.37
2017-07-12T17:49:24.535Z,100927.97
2017-07-12T17:51:50.967Z,100929.22
2017-07-12T17:54:17.352Z,100934.85
2017-07-12T17:56:43.850Z,100937.80
2017-07-12T17:59:10.213Z,100947.70
2017-07-12T18:01:36.598Z,100952.70
2017-07-12T18:04:02.954Z,100957.76
2017-07-12T18:06:29.295Z,100961.45
2017-07-12T18:21:54.711Z,100988.70
2017-07-12T18:24:21.057Z,100989.61
2017-07-12T18:26:47.510Z,101006.77
2017-07-12T18:29:13.915Z,101006.91
2017-07-12T18:31:40.400Z,101005.27
2017-07-12T18:34:06.810Z,101005.34
2017-07-12T18:36:33.157Z,101011.36
2017-07-12T18:38:59.510Z,101022.61
2017-07-12T18:41:26.908Z,101031.34
2017-07-12T18:43:53.295Z,101032.86
2017-07-12T18:46:19.690Z,101039.58
2017-07-12T18:48:46.067Z,101042.05
2017-07-12T18:51:12.491Z,101044.28
2017-07-12T18:53:38.832Z,101050.28
2017-07-12T18:56:05.197Z,101050.05
2017-07-12T18:58:31.565Z,101057.09
2017-07-12T19:00:57.955Z,101058.80
2017-07-12T19:03:24.358Z,101063.00
2017-07-12T19:05:50.748Z,101070.14
2017-07-12T19:08:17.192Z,101075.87
2017-07-12T19:10:43.594Z,101076.28
2017-07-12T19:13:09.962Z,101081.34
2017-07-12T19:15:41.600Z,101078.77
2017-07-12T19:18:08.188Z,101086.98
2017-07-12T19:20:34.558Z,101092.27
2017-07-12T19:23:00.952Z,101102.13
2017-07-12T19:25:27.347Z,101104.39
2017-07-12T19:27:53.738Z,101111.09
2017-07-12T19:30:20.352Z,101104.50
2017-07-12T19:32:46.695Z,101117.31
2017-07-12T19:35:14.529Z,101118.93
2017-07-12T19:37:40.966Z,101114.44
2017-07-12T19:40:07.533Z,101122.79
2017-07-12T19:42:34.816Z,101133.79
2017-07-12T19:45:01.256Z,101134.16
2017-07-12T19:47:27.680Z,101138.43
2017-07-12T19:49:54.081Z,101137.86
2017-07-12T19:52:20.447Z,101136.47
2017-07-12T19:54:46.836Z,101141.13
2017-07-12T19:57:13.720Z,101146.40
2017-07-12T19:59:40.873Z,101149.10
2017-07-12T20:02:08.892Z,101161.41
2017-07-12T20:04:35.302Z,101165.81
2017-07-12T20:07:01.672Z,101171.64
2017-07-12T20:09:28.022Z,101183.09
2017-07-12T20:11:54.391Z,101188.98
2017-07-12T20:14:20.777Z,101191.27
2017-07-12T20:16:47.153Z,101200.94
2017-07-12T20:19:13.531Z,101205.83
2017-07-12T20:21:39.887Z,101210.75
2017-07-12T20:24:06.266Z,101211.33
2017-07-12T20:26:32.651Z,101218.33
2017-07-12T20:28:59.086Z,101224.80
2017-07-12T20:31:26.946Z,101232.81
2017-07-12T20:33:54.950Z,101232.03
2017-07-12T20:36:21.426Z,101234.63
2017-07-12T20:38:47.780Z,101242.11
2017-07-12T20:41:14.489Z,101238.59
2017-07-12T20:43:40.852Z,101244.13
2017-07-12T20:46:07.233Z,101246.61
2017-07-12T20:48:33.616Z,101249.92
2017-07-12T20:51:00.264Z,101263.59
2017-07-12T20:53:26.723Z,101257.91
2017-07-12T20:55:53.141Z,101266.52
2017-07-12T20:58:19.596Z,101267.65
2017-07-12T21:00:46.016Z,101270.55
2017-07-12T21:03:12.386Z,101276.88
2017-07-12T21:05:38.755Z,101285.28
2017-07-12T21:08:05.103Z,101282.65
2017-07-12T21:10:31.438Z,101282.77
2017-07-12T21:12:58.131Z,101297.59
2017-07-12T21:15:24.521Z,101299.81
2017-07-12T21:17:50.865Z,101302.80
2017-07-12T21:20:17.262Z,101297.84
2017-07-12T21:22:43.658Z,101305.05
2017-07-12T21:25:10.072Z,101304.47
2017-07-12T21:27:36.475Z,101315.13
2017-07-12T21:30:02.893Z,101318.45
2017-07-12T21:32:29.233Z,101318.78
2017-07-12T21:34:55.633Z,101319.73
2017-07-12T21:37:21.984Z,101330.51
2017-07-12T21:39:48.360Z,101336.52
2017-07-12T21:42:14.766Z,101339.41
2017-07-12T21:44:41.213Z,101339.24
2017-07-12T21:47:07.536Z,101347.05
2017-07-12T21:49:33.896Z,101353.36
2017-07-12T21:52:00.245Z,101354.92
2017-07-12T21:54:44.941Z,101358.65
2017-07-12T21:57:29.581Z,101364.39
2017-07-12T22:00:14.113Z,101363.96
2017-07-12T22:02:58.755Z,101366.73
2017-07-12T22:05:43.227Z,101368.84
2017-07-12T22:08:27.763Z,101376.91
2017-07-12T22:11:12.487Z,101370.53
2017-07-12T22:13:57.199Z,101380.89
2017-07-12T22:16:41.816Z,101378.75
2017-07-12T22:19:26.369Z,101378.12
2017-07-12T22:22:10.906Z,101379.53
2017-07-12T22:24:55.572Z,101386.28
2017-07-12T22:27:40.249Z,101387.35
2017-07-12T22:30:24.867Z,101387.98
2017-07-12T22:33:09.434Z,101388.41
2017-07-12T22:35:54.956Z,101397.17
2017-07-12T22:38:31.309Z,101396.45
2017-07-12T22:41:04.051Z,101398.83
2017-07-12T22:43:30.311Z,101397.75
2017-07-12T22:45:59.870Z,101398.61
2017-07-12T22:48:29.348Z,101399.91
2017-07-12T22:50:55.865Z,101401.30
2017-07-12T22:53:22.228Z,101410.14
2017-07-12T22:55:48.572Z,101402.77
2017-07-12T22:58:14.922Z,101410.97
2017-07-12T23:00:41.523Z,101412.82
2017-07-12T23:03:07.968Z,101415.64
2017-07-12T23:05:34.324Z,101422.62
2017-07-12T23:08:00.695Z,101422.06
2017-07-12T23:10:27.086Z,101417.55
2017-07-12T23:12:53.466Z,101413.04
2017-07-12T23:15:19.826Z,101423.19
2017-07-12T23:17:46.198Z,101418.31
2017-07-12T23:20:12.638Z,101422.19
2017-07-12T23:22:39.016Z,101428.27
2017-07-12T23:25:05.349Z,101438.58
2017-07-12T23:27:31.713Z,101438.69
2017-07-12T23:29:58.147Z,101437.09
2017-07-12T23:32:24.520Z,101435.16
2017-07-12T23:34:50.929Z,101441.50
2017-07-12T23:37:17.331Z,101438.34
2017-07-12T23:39:43.767Z,101444.73
2017-07-12T23:42:10.154Z,101443.05
2017-07-12T23:44:36.648Z,101446.71
2017-07-12T23:47:03.414Z,101442.05
2017-07-12T23:49:29.888Z,101447.77
2017-07-12T23:51:56.290Z,101449.44
2017-07-12T23:54:22.755Z,101449.73
2017-07-12T23:56:49.165Z,101452.59
2017-07-12T23:59:15.552Z,101453.90
